Time,TemperatureF,DewpointF,PressureIn,WindDirection,WindDirectionDegrees,WindSpeedMPH,WindSpeedGustMPH,Humidity,HourlyPrecipIn,Conditions,Clouds,dailyrainin,SoftwareType,DateUTC
2017-02-23 00:03:00,34.9,32.8,29.85,NE,41,0.0,0.0,92,0.00,,OVC070,0.00,VWS V14.01,2017-02-23 05:03:00,
2017-02-23 00:08:00,34.7,32.6,29.85,NE,41,0.0,0.0,92,0.00,,OVC070,0.00,VWS V14.01,2017-02-23 05:08:00,
2017-02-23 00:13:00,34.6,32.5,29.85,NE,41,0.0,0.0,92,0.00,,OVC070,0.00,VWS V14.01,2017-02-23 05:13:00,
2017-02-23 00:18:00,34.6,32.5,29.85,NE,41,0.0,0.0,92,0.00,,OVC070,0.00,VWS V14.01,2017-02-23 05:18:00,
2017-02-23 00:23:00,34.4,32.3,29.85,NE,41,0.0,0.0,92,0.00,,OVC070,0.00,VWS V14.01,2017-02-23 05:23:00,
2017-02-23 00:28:00,34.3,32.2,29.85,NE,41,0.0,0.0,92,0.00,,OVC070,0.00,VWS V14.01,2017-02-23 05:28:00,
2017-02-23 00:33:00,34.3,32.2,29.85,NE,41,0.0,0.0,92,0.00,,OVC070,0.00,VWS V14.01,2017-02-23 05:33:00,
2017-02-23 00:38:00,34.1,32.0,29.85,NE,41,0.0,0.0,92,0.00,,OVC070,0.00,VWS V14.01,2017-02-23 05:38:00,
2017-02-23 00:43:00,34.1,32.0,29.85,NE,41,0.0,0.0,92,0.00,,OVC070,0.00,VWS V14.01,2017-02-23 05:43:00,
2017-02-23 00:48:00,34.1,32.3,29.84,NE,41,0.0,0.0,93,0.00,,OVC070,0.00,VWS V14.01,2017-02-23 05:48:00,
2017-02-23 00:53:00,34.3,32.5,29.84,NE,41,0.0,0.0,93,0.00,,OVC070,0.00,VWS V14.01,2017-02-23 05:53:00,
2017-02-23 00:58:00,34.3,32.5,29.84,NE,41,0.0,0.0,93,0.00,,OVC070,0.00,VWS V14.01,2017-02-23 05:58:00,
2017-02-23 01:03:00,34.4,32.6,29.84,NE,41,0.0,0.0,93,0.00,,OVC070,0.00,VWS V14.01,2017-02-23 06:03:00,
2017-02-23 01:08:00,34.6,33.0,29.84,NE,41,0.0,0.0,94,0.00,,OVC070,0.00,VWS V14.01,2017-02-23 06:08:00,
2017-02-23 01:14:00,34.9,33.3,29.84,NE,41,0.0,0.0,94,0.00,,OVC070,0.00,VWS V14.01,2017-02-23 06:14:00,
2017-02-23 01:19:00,35.2,33.9,29.85,NE,41,0.0,0.0,95,0.00,,OVC070,0.00,VWS V14.01,2017-02-23 06:19:00,
2017-02-23 01:24:00,35.3,34.0,29.85,NE,41,0.0,0.0,95,0.00,,OVC070,0.00,VWS V14.01,2017-02-23 06:24:00,
2017-02-23 01:29:00,35.3,34.0,29.85,NE,41,0.0,0.0,95,0.00,,OVC070,0.00,VWS V14.01,2017-02-23 06:29:00,
2017-02-23 01:34:00,35.3,34.0,29.85,NE,41,0.0,0.0,95,0.00,,OVC070,0.00,VWS V14.01,2017-02-23 06:34:00,
2017-02-23 01:41:00,35.3,34.0,29.85,North,0,0.0,0.0,95,0.00,,OVC070,0.00,VWS V14.01,2017-02-23 06:41:00,
2017-02-23 01:46:00,35.2,33.9,29.85,NE,41,0.0,0.0,95,0.00,,OVC070,0.00,VWS V14.01,2017-02-23 06:46:00,
2017-02-23 01:51:00,35.2,33.9,29.85,NE,41,0.0,0.0,95,0.00,,OVC070,0.00,VWS V14.01,2017-02-23 06:51:00,
2017-02-23 01:56:00,35.2,33.9,29.85,NE,41,0.0,0.0,95,0.00,,OVC070,0.00,VWS V14.01,2017-02-23 06:56:00,
2017-02-23 02:01:00,35.2,33.9,29.85,NE,41,0.0,0.0,95,0.00,,OVC070,0.00,VWS V14.01,2017-02-23 07:01:00,
2017-02-23 02:06:00,35.0,33.7,29.85,NE,41,0.0,0.0,95,0.00,,OVC070,0.00,VWS V14.01,2017-02-23 07:06:00,
2017-02-23 02:11:00,35.2,33.9,29.85,NE,41,0.0,0.0,95,0.00,,OVC070,0.00,VWS V14.01,2017-02-23 07:11:00,
2017-02-23 02:16:00,35.3,34.0,29.85,NE,41,0.0,0.0,95,0.00,,OVC070,0.00,VWS V14.01,2017-02-23 07:16:00,
2017-02-23 02:21:00,35.3,34.0,29.85,NE,41,0.0,0.0,95,0.00,,OVC070,0.00,VWS V14.01,2017-02-23 07:21:00,
2017-02-23 02:26:00,35.2,33.9,29.85,NE,41,0.0,0.0,95,0.00,,OVC070,0.00,VWS V14.01,2017-02-23 07:26:00,
2017-02-23 02:31:00,35.0,33.7,29.85,NE,41,0.0,0.0,95,0.00,,OVC070,0.00,VWS V14.01,2017-02-23 07:31:00,
2017-02-23 02:36:00,35.0,33.7,29.85,NE,41,0.0,0.0,95,0.00,,OVC070,0.00,VWS V14.01,2017-02-23 07:36:00,
2017-02-23 02:41:00,35.0,33.7,29.85,NE,41,0.0,0.0,95,0.00,,OVC070,0.00,VWS V14.01,2017-02-23 07:41:00,
2017-02-23 02:46:00,34.9,33.6,29.85,NE,41,0.0,0.0,95,0.00,,OVC070,0.00,VWS V14.01,2017-02-23 07:46:00,
2017-02-23 02:51:00,34.9,33.6,29.85,NE,41,0.0,0.0,95,0.00,,OVC070,0.00,VWS V14.01,2017-02-23 07:51:00,
2017-02-23 02:56:00,34.7,33.4,29.85,NE,41,0.0,0.0,95,0.00,,OVC070,0.00,VWS V14.01,2017-02-23 07:56:00,
2017-02-23 03:01:00,34.7,33.4,29.84,NE,41,0.0,0.0,95,0.00,,OVC070,0.00,VWS V14.01,2017-02-23 08:01:00,
2017-02-23 03:06:00,34.7,33.4,29.84,NE,41,0.0,0.0,95,0.00,,OVC070,0.00,VWS V14.01,2017-02-23 08:06:00,
2017-02-23 03:11:00,34.7,33.7,29.84,NE,41,0.0,0.0,96,0.00,,OVC070,0.00,VWS V14.01,2017-02-23 08:11:00,
2017-02-23 03:16:00,34.7,33.7,29.84,NE,41,0.0,0.0,96,0.00,,OVC070,0.00,VWS V14.01,2017-02-23 08:16:00,
2017-02-23 03:21:00,34.7,33.7,29.84,NE,41,0.0,0.0,96,0.00,,OVC070,0.00,VWS V14.01,2017-02-23 08:21:00,
2017-02-23 03:26:00,34.7,33.4,29.84,NE,41,0.0,0.0,95,0.00,,OVC070,0.00,VWS V14.01,2017-02-23 08:26:00,
2017-02-23 03:31:00,34.7,33.7,29.84,NE,41,0.0,0.0,96,0.00,,OVC070,0.00,VWS V14.01,2017-02-23 08:31:00,
2017-02-23 03:36:00,34.7,33.4,29.84,NE,41,0.0,0.0,95,0.00,,OVC070,0.00,VWS V14.01,2017-02-23 08:36:00,
2017-02-23 03:41:00,34.6,33.3,29.84,NE,41,0.0,0.0,95,0.00,,OVC070,0.00,VWS V14.01,2017-02-23 08:41:00,
2017-02-23 03:46:00,34.6,33.3,29.84,NE,41,0.0,0.0,95,0.00,,OVC070,0.00,VWS V14.01,2017-02-23 08:46:00,
2017-02-23 03:47:00,34.6,33.3,29.84,NE,41,0.0,0.0,95,0.00,,OVC070,0.00,VWS V14.01,2017-02-23 08:47:00,
2017-02-23 03:52:00,34.6,33.6,29.84,NE,41,0.0,0.0,96,0.00,,OVC070,0.00,VWS V14.01,2017-02-23 08:52:00,
2017-02-23 03:57:00,34.6,33.6,29.84,NE,41,0.0,0.0,96,0.00,,OVC070,0.00,VWS V14.01,2017-02-23 08:57:00,
2017-02-23 04:02:00,34.4,33.4,29.84,NE,41,0.0,0.0,96,0.00,,OVC070,0.00,VWS V14.01,2017-02-23 09:02:00,
2017-02-23 04:07:00,34.4,33.4,29.84,NE,41,0.0,0.0,96,0.00,,OVC070,0.00,VWS V14.01,2017-02-23 09:07:00,
2017-02-23 04:12:00,34.4,33.1,29.84,NE,41,0.0,0.0,95,0.00,,OVC070,0.00,VWS V14.01,2017-02-23 09:12:00,
2017-02-23 04:17:00,34.3,33.0,29.84,NE,41,0.0,0.0,95,0.00,,OVC070,0.00,VWS V14.01,2017-02-23 09:17:00,
2017-02-23 04:22:00,34.1,32.8,29.84,NE,41,0.0,0.0,95,0.00,,OVC070,0.00,VWS V14.01,2017-02-23 09:22:00,
2017-02-23 04:23:00,34.1,32.8,29.84,NE,41,0.0,0.0,95,0.00,,OVC070,0.00,VWS V14.01,2017-02-23 09:23:00,
2017-02-23 04:28:00,34.0,32.7,29.84,NE,41,0.0,0.0,95,0.00,,OVC070,0.00,VWS V14.01,2017-02-23 09:28:00,
2017-02-23 04:33:00,33.8,32.5,29.84,NE,41,0.0,0.0,95,0.00,,OVC070,0.00,VWS V14.01,2017-02-23 09:33:00,
2017-02-23 04:38:00,33.8,32.5,29.84,NE,41,0.0,0.0,95,0.00,,OVC070,0.00,VWS V14.01,2017-02-23 09:38:00,
2017-02-23 04:43:00,33.7,32.4,29.84,NE,41,0.0,0.0,95,0.00,,OVC070,0.00,VWS V14.01,2017-02-23 09:43:00,
2017-02-23 04:48:00,33.7,32.4,29.84,NE,41,0.0,0.0,95,0.00,,OVC070,0.00,VWS V14.01,2017-02-23 09:48:00,
2017-02-23 04:53:00,33.5,32.2,29.84,NE,41,0.0,0.0,95,0.00,,OVC070,0.00,VWS V14.01,2017-02-23 09:53:00,
2017-02-23 04:58:00,33.4,32.1,29.84,NE,41,0.0,0.0,95,0.00,,OVC070,0.00,VWS V14.01,2017-02-23 09:58:00,
2017-02-23 05:03:00,33.4,32.1,29.84,NE,41,0.0,0.0,95,0.00,,OVC070,0.00,VWS V14.01,2017-02-23 10:03:00,
2017-02-23 05:08:00,33.2,31.9,29.84,NE,41,0.0,0.0,95,0.00,,OVC070,0.00,VWS V14.01,2017-02-23 10:08:00,
2017-02-23 05:13:00,33.2,31.9,29.84,NE,41,0.0,0.0,95,0.00,,OVC070,0.00,VWS V14.01,2017-02-23 10:13:00,
2017-02-23 05:18:00,33.2,31.9,29.84,NE,41,0.0,0.0,95,0.00,,OVC070,0.00,VWS V14.01,2017-02-23 10:18:00,
2017-02-23 05:23:00,33.2,32.2,29.84,NE,41,0.0,0.0,96,0.00,,OVC070,0.00,VWS V14.01,2017-02-23 10:23:00,
2017-02-23 05:28:00,33.2,32.2,29.84,NE,41,0.0,0.0,96,0.00,,OVC070,0.00,VWS V14.01,2017-02-23 10:28:00,
2017-02-23 05:33:00,33.2,32.2,29.84,NE,41,0.0,0.0,96,0.00,,OVC070,0.00,VWS V14.01,2017-02-23 10:33:00,
2017-02-23 05:38:00,33.1,32.1,29.84,NE,41,0.0,0.0,96,0.00,,OVC070,0.00,VWS V14.01,2017-02-23 10:38:00,
2017-02-23 05:43:00,33.1,32.1,29.84,NE,41,0.0,0.0,96,0.00,,OVC070,0.00,VWS V14.01,2017-02-23 10:43:00,
2017-02-23 05:48:00,33.1,32.1,29.85,NE,41,0.0,0.0,96,0.00,,OVC070,0.00,VWS V14.01,2017-02-23 10:48:00,
2017-02-23 05:53:00,33.2,32.2,29.85,NE,41,0.0,0.0,96,0.00,,OVC070,0.00,VWS V14.01,2017-02-23 10:53:00,
2017-02-23 05:58:00,33.2,32.2,29.85,NE,41,0.0,0.0,96,0.00,,OVC070,0.00,VWS V14.01,2017-02-23 10:58:00,
2017-02-23 06:03:00,33.4,32.4,29.85,NE,41,0.0,0.0,96,0.00,,OVC070,0.00,VWS V14.01,2017-02-23 11:03:00,
2017-02-23 06:08:00,33.5,32.7,29.85,NE,41,0.0,0.0,97,0.00,,OVC070,0.00,VWS V14.01,2017-02-23 11:08:00,
2017-02-23 06:13:00,33.7,32.9,29.85,NE,41,0.0,0.0,97,0.00,,OVC070,0.00,VWS V14.01,2017-02-23 11:13:00,
2017-02-23 06:18:00,33.7,32.9,29.85,NE,41,0.0,0.0,97,0.00,,OVC070,0.00,VWS V14.01,2017-02-23 11:18:00,
2017-02-23 06:23:00,33.5,32.7,29.85,NE,41,0.0,0.0,97,0.00,,OVC070,0.00,VWS V14.01,2017-02-23 11:23:00,
2017-02-23 06:28:00,33.5,32.7,29.85,NE,41,0.0,0.0,97,0.00,,OVC070,0.00,VWS V14.01,2017-02-23 11:28:00,
2017-02-23 06:33:00,33.4,32.6,29.85,NE,41,0.0,0.0,97,0.00,,OVC070,0.00,VWS V14.01,2017-02-23 11:33:00,
2017-02-23 06:38:00,33.2,32.4,29.85,NE,41,0.0,0.0,97,0.00,,OVC070,0.00,VWS V14.01,2017-02-23 11:38:00,
2017-02-23 06:43:00,33.2,32.4,29.85,NE,41,0.0,0.0,97,0.00,,OVC070,0.00,VWS V14.01,2017-02-23 11:43:00,
2017-02-23 06:48:00,33.2,32.4,29.85,NE,41,0.0,0.0,97,0.00,,OVC070,0.00,VWS V14.01,2017-02-23 11:48:00,
2017-02-23 06:53:00,33.5,32.7,29.85,NE,41,0.0,0.0,97,0.00,,OVC070,0.00,VWS V14.01,2017-02-23 11:53:00,
2017-02-23 06:58:00,33.7,32.9,29.85,NE,41,0.0,0.0,97,0.00,,OVC070,0.00,VWS V14.01,2017-02-23 11:58:00,
2017-02-23 07:03:00,34.0,33.2,29.85,NE,41,0.0,0.0,97,0.00,,OVC070,0.00,VWS V14.01,2017-02-23 12:03:00,
2017-02-23 07:08:00,34.3,33.8,29.85,NE,41,0.0,0.0,98,0.00,,OVC070,0.00,VWS V14.01,2017-02-23 12:08:00,
2017-02-23 07:13:00,34.7,34.2,29.85,NE,41,0.0,0.0,98,0.00,,OVC070,0.00,VWS V14.01,2017-02-23 12:13:00,
2017-02-23 07:18:00,35.2,34.7,29.85,NE,41,0.0,0.0,98,0.00,,OVC070,0.00,VWS V14.01,2017-02-23 12:18:00,
2017-02-23 07:23:00,35.5,35.0,29.85,NE,41,0.0,0.0,98,0.00,,OVC070,0.00,VWS V14.01,2017-02-23 12:23:00,
2017-02-23 07:28:00,36.2,35.7,29.85,NE,41,0.0,0.0,98,0.00,,OVC070,0.00,VWS V14.01,2017-02-23 12:28:00,
2017-02-23 07:33:00,36.6,36.1,29.85,NE,41,0.0,0.0,98,0.00,,OVC070,0.00,VWS V14.01,2017-02-23 12:33:00,
2017-02-23 07:38:00,37.0,36.5,29.85,NE,41,0.0,0.0,98,0.00,,OVC070,0.00,VWS V14.01,2017-02-23 12:38:00,
2017-02-23 07:43:00,37.5,37.0,29.85,NE,41,0.0,0.0,98,0.00,,OVC070,0.00,VWS V14.01,2017-02-23 12:43:00,
2017-02-23 07:48:00,37.8,37.3,29.85,NE,41,0.0,0.0,98,0.00,,OVC070,0.00,VWS V14.01,2017-02-23 12:48:00,
2017-02-23 07:53:00,37.9,37.4,29.85,NE,41,0.0,0.0,98,0.00,,OVC070,0.00,VWS V14.01,2017-02-23 12:53:00,
2017-02-23 07:58:00,38.2,37.9,29.85,NE,41,0.0,0.0,99,0.00,,OVC070,0.00,VWS V14.01,2017-02-23 12:58:00,
2017-02-23 08:03:00,38.5,38.2,29.85,NE,41,0.0,0.0,99,0.00,,OVC070,0.00,VWS V14.01,2017-02-23 13:03:00,
2017-02-23 08:08:00,38.9,38.6,29.85,NE,41,0.0,0.0,99,0.00,,OVC070,0.00,VWS V14.01,2017-02-23 13:08:00,
2017-02-23 08:13:00,39.2,38.9,29.85,SW,215,0.0,2.0,99,0.00,,OVC070,0.00,VWS V14.01,2017-02-23 13:13:00,
2017-02-23 08:18:00,39.6,39.3,29.85,SW,215,0.0,0.0,99,0.00,,OVC070,0.00,VWS V14.01,2017-02-23 13:18:00,
2017-02-23 08:23:00,40.1,39.8,29.85,SW,215,0.0,0.0,99,0.00,,OVC070,0.00,VWS V14.01,2017-02-23 13:23:00,
2017-02-23 08:28:00,40.3,40.0,29.85,SW,215,0.0,1.0,99,0.00,,OVC070,0.00,VWS V14.01,2017-02-23 13:28:00,
2017-02-23 08:33:00,40.8,40.5,29.86,SW,215,0.0,1.0,99,0.00,,OVC070,0.00,VWS V14.01,2017-02-23 13:33:00,
2017-02-23 08:38:00,41.2,40.9,29.86,WSW,237,0.0,3.0,99,0.00,,OVC070,0.00,VWS V14.01,2017-02-23 13:38:00,
2017-02-23 08:43:00,41.8,41.5,29.86,WSW,237,0.0,0.0,99,0.00,,OVC070,0.00,VWS V14.01,2017-02-23 13:43:00,
2017-02-23 08:48:00,42.2,41.9,29.85,WSW,238,1.0,1.0,99,0.00,,OVC070,0.00,VWS V14.01,2017-02-23 13:48:00,
2017-02-23 08:53:00,42.5,42.0,29.85,WSW,242,0.0,1.0,98,0.00,,OVC070,0.00,VWS V14.01,2017-02-23 13:53:00,
2017-02-23 08:58:00,42.9,42.4,29.85,WSW,241,0.0,2.0,98,0.00,,OVC070,0.00,VWS V14.01,2017-02-23 13:58:00,
2017-02-23 09:03:00,43.3,42.8,29.85,WSW,241,0.0,1.0,98,0.00,,OVC070,0.00,VWS V14.01,2017-02-23 14:03:00,
2017-02-23 09:08:00,43.9,43.1,29.85,WSW,241,0.0,1.0,97,0.00,,OVC070,0.00,VWS V14.01,2017-02-23 14:08:00,
2017-02-23 09:13:00,44.5,43.2,29.85,WSW,241,0.0,1.0,95,0.00,,OVC070,0.00,VWS V14.01,2017-02-23 14:13:00,
2017-02-23 09:18:00,45.1,43.5,29.85,WSW,241,1.0,1.0,94,0.00,,OVC070,0.00,VWS V14.01,2017-02-23 14:18:00,
2017-02-23 09:23:00,45.7,43.5,29.85,SW,236,0.0,1.0,92,0.00,,OVC070,0.00,VWS V14.01,2017-02-23 14:23:00,
2017-02-23 09:28:00,46.2,43.4,29.85,SW,236,0.0,1.0,90,0.00,,OVC070,0.00,VWS V14.01,2017-02-23 14:28:00,
2017-02-23 09:33:00,46.8,43.1,29.85,SW,236,0.0,1.0,87,0.00,,OVC070,0.00,VWS V14.01,2017-02-23 14:33:00,
2017-02-23 09:38:00,47.4,43.1,29.85,SW,236,0.0,1.0,85,0.00,,OVC070,0.00,VWS V14.01,2017-02-23 14:38:00,
2017-02-23 09:43:00,48.0,43.1,29.85,SW,236,0.0,1.0,83,0.00,,OVC070,0.00,VWS V14.01,2017-02-23 14:43:00,
2017-02-23 09:48:00,48.8,42.9,29.85,WSW,244,0.0,2.0,80,0.00,,OVC070,0.00,VWS V14.01,2017-02-23 14:48:00,
2017-02-23 09:53:00,49.5,42.9,29.85,SW,226,0.0,0.0,78,0.00,,OVC070,0.00,VWS V14.01,2017-02-23 14:53:00,
2017-02-23 09:58:00,50.2,42.9,29.85,SW,226,0.0,1.0,76,0.00,,OVC070,0.00,VWS V14.01,2017-02-23 14:58:00,
2017-02-23 10:03:00,51.0,43.4,29.84,SW,226,0.0,0.0,75,0.00,,OVC070,0.00,VWS V14.01,2017-02-23 15:03:00,
2017-02-23 10:08:00,52.2,43.1,29.84,SSW,208,0.0,0.0,71,0.00,,OVC070,0.00,VWS V14.01,2017-02-23 15:08:00,
2017-02-23 10:13:00,53.2,43.7,29.84,SSW,208,0.0,0.0,70,0.00,,OVC070,0.00,VWS V14.01,2017-02-23 15:13:00,
2017-02-23 10:18:00,54.2,43.5,29.83,SSW,208,0.0,0.0,67,0.00,,OVC070,0.00,VWS V14.01,2017-02-23 15:18:00,
2017-02-23 10:23:00,55.1,43.6,29.83,SSW,208,1.0,1.0,65,0.00,,OVC070,0.00,VWS V14.01,2017-02-23 15:23:00,
2017-02-23 10:28:00,56.0,44.0,29.83,SSW,210,0.0,0.0,64,0.00,,OVC070,0.00,VWS V14.01,2017-02-23 15:28:00,
2017-02-23 10:33:00,56.7,43.4,29.83,SSW,210,0.0,2.0,61,0.00,,OVC070,0.00,VWS V14.01,2017-02-23 15:33:00,
2017-02-23 10:38:00,57.5,43.7,29.83,SSW,204,0.0,1.0,60,0.00,,OVC070,0.00,VWS V14.01,2017-02-23 15:38:00,
2017-02-23 10:43:00,58.0,43.8,29.83,SW,219,0.0,1.0,59,0.00,,OVC070,0.00,VWS V14.01,2017-02-23 15:43:00,
2017-02-23 10:48:00,58.4,43.7,29.83,SSW,203,0.0,2.0,58,0.00,,OVC070,0.00,VWS V14.01,2017-02-23 15:48:00,
2017-02-23 10:53:00,58.9,43.7,29.83,WSW,245,0.0,3.0,57,0.00,,OVC070,0.00,VWS V14.01,2017-02-23 15:53:00,
2017-02-23 10:58:00,59.6,43.9,29.83,SW,217,2.0,2.0,56,0.00,,OVC070,0.00,VWS V14.01,2017-02-23 15:58:00,
2017-02-23 11:03:00,60.4,44.2,29.82,WSW,242,0.0,3.0,55,0.00,,OVC070,0.00,VWS V14.01,2017-02-23 16:03:00,
2017-02-23 11:08:00,60.9,44.2,29.82,SW,222,1.0,3.0,54,0.00,,OVC070,0.00,VWS V14.01,2017-02-23 16:08:00,
2017-02-23 11:13:00,61.3,44.5,29.82,SW,221,0.0,0.0,54,0.00,,OVC070,0.00,VWS V14.01,2017-02-23 16:13:00,
2017-02-23 11:18:00,62.0,44.7,29.82,SW,218,2.0,3.0,53,0.00,,OVC070,0.00,VWS V14.01,2017-02-23 16:18:00,
2017-02-23 11:23:00,62.4,44.6,29.82,SSW,197,2.0,2.0,52,0.00,,OVC070,0.00,VWS V14.01,2017-02-23 16:23:00,
2017-02-23 11:28:00,62.6,44.8,29.82,SSW,192,0.0,3.0,52,0.00,,OVC070,0.00,VWS V14.01,2017-02-23 16:28:00,
2017-02-23 11:33:00,62.9,44.5,29.80,SW,214,2.0,4.0,51,0.00,,OVC070,0.00,VWS V14.01,2017-02-23 16:33:00,
2017-02-23 11:38:00,63.4,45.0,29.80,SSW,194,0.0,1.0,51,0.00,,OVC070,0.00,VWS V14.01,2017-02-23 16:38:00,
2017-02-23 11:43:00,63.7,45.2,29.80,SW,231,0.0,4.0,51,0.00,,OVC070,0.00,VWS V14.01,2017-02-23 16:43:00,
2017-02-23 11:48:00,63.7,44.7,29.79,SSW,207,0.0,1.0,50,0.00,,OVC070,0.00,VWS V14.01,2017-02-23 16:48:00,
2017-02-23 11:53:00,63.5,44.5,29.79,SW,228,0.0,3.0,50,0.00,,OVC070,0.00,VWS V14.01,2017-02-23 16:53:00,
2017-02-23 11:58:00,63.4,44.5,29.79,WSW,244,3.0,3.0,50,0.00,,OVC070,0.00,VWS V14.01,2017-02-23 16:58:00,
2017-02-23 12:03:00,63.1,44.2,29.78,SW,214,3.0,4.0,50,0.00,,OVC070,0.00,VWS V14.01,2017-02-23 17:03:00,
2017-02-23 12:08:00,63.1,44.7,29.78,WSW,243,1.0,2.0,51,0.00,,OVC070,0.00,VWS V14.01,2017-02-23 17:08:00,
2017-02-23 12:13:00,63.5,44.5,29.78,SSW,208,0.0,4.0,50,0.00,,OVC070,0.00,VWS V14.01,2017-02-23 17:13:00,
2017-02-23 12:18:00,64.0,44.5,29.78,SW,229,0.0,3.0,49,0.00,,OVC070,0.00,VWS V14.01,2017-02-23 17:18:00,
2017-02-23 12:23:00,64.5,44.9,29.78,SSW,212,0.0,3.0,49,0.00,,OVC070,0.00,VWS V14.01,2017-02-23 17:23:00,
2017-02-23 12:28:00,64.8,44.1,29.78,SW,236,4.0,4.0,47,0.00,,OVC070,0.00,VWS V14.01,2017-02-23 17:28:00,
2017-02-23 12:33:00,64.5,44.4,29.77,SSW,212,3.0,5.0,48,0.00,,OVC070,0.00,VWS V14.01,2017-02-23 17:33:00,
2017-02-23 12:38:00,64.2,44.7,29.77,SW,229,2.0,4.0,49,0.00,,OVC070,0.00,VWS V14.01,2017-02-23 17:38:00,
2017-02-23 12:43:00,64.0,44.5,29.77,SSW,200,0.0,2.0,49,0.00,,OVC070,0.00,VWS V14.01,2017-02-23 17:43:00,
2017-02-23 12:48:00,63.7,44.2,29.76,SW,235,3.0,6.0,49,0.00,,OVC070,0.00,VWS V14.01,2017-02-23 17:48:00,
2017-02-23 12:53:00,63.5,44.0,29.76,SW,217,2.0,4.0,49,0.00,,OVC070,0.00,VWS V14.01,2017-02-23 17:53:00,
2017-02-23 12:56:00,63.5,44.5,29.76,SSW,198,0.0,2.0,50,0.00,,OVC070,0.00,VWS V14.01,2017-02-23 17:56:00,
2017-02-23 13:01:00,63.5,44.5,29.75,WSW,240,1.0,5.0,50,0.00,,OVC070,0.00,VWS V14.01,2017-02-23 18:01:00,
2017-02-23 13:06:00,63.7,45.2,29.75,SW,229,2.0,4.0,51,0.00,,OVC070,0.00,VWS V14.01,2017-02-23 18:06:00,
2017-02-23 13:11:00,64.0,45.0,29.75,SW,217,4.0,7.0,50,0.00,,OVC070,0.00,VWS V14.01,2017-02-23 18:11:00,
2017-02-23 13:16:00,64.7,45.7,29.74,SW,232,3.0,5.0,50,0.00,,OVC070,0.00,VWS V14.01,2017-02-23 18:16:00,
2017-02-23 13:21:00,65.2,46.1,29.74,South,191,1.0,5.0,50,0.00,,OVC070,0.00,VWS V14.01,2017-02-23 18:21:00,
2017-02-23 13:26:00,65.5,46.4,29.74,SW,230,1.0,1.0,50,0.00,,OVC070,0.00,VWS V14.01,2017-02-23 18:26:00,
2017-02-23 13:31:00,66.0,46.8,29.74,SW,217,0.0,3.0,50,0.00,,OVC070,0.00,VWS V14.01,2017-02-23 18:31:00,
2017-02-23 13:36:00,66.3,47.7,29.74,SW,233,4.0,5.0,51,0.00,,OVC070,0.00,VWS V14.01,2017-02-23 18:36:00,
2017-02-23 13:41:00,66.3,47.7,29.74,SW,227,3.0,4.0,51,0.00,,OVC070,0.00,VWS V14.01,2017-02-23 18:41:00,
2017-02-23 13:46:00,66.1,48.0,29.74,SW,233,1.0,5.0,52,0.00,,OVC070,0.00,VWS V14.01,2017-02-23 18:46:00,
2017-02-23 13:51:00,66.1,48.5,29.74,WSW,255,4.0,6.0,53,0.00,,OVC070,0.00,VWS V14.01,2017-02-23 18:51:00,
2017-02-23 13:56:00,66.0,48.9,29.74,SSW,205,1.0,7.0,54,0.00,,OVC070,0.00,VWS V14.01,2017-02-23 18:56:00,
2017-02-23 14:01:00,65.8,48.7,29.73,WSW,250,1.0,5.0,54,0.00,,OVC070,0.00,VWS V14.01,2017-02-23 19:01:00,
2017-02-23 14:06:00,65.6,48.5,29.73,SW,224,0.0,2.0,54,0.00,,OVC070,0.00,VWS V14.01,2017-02-23 19:06:00,
2017-02-23 14:11:00,65.5,48.9,29.73,SSW,203,1.0,1.0,55,0.00,,OVC070,0.00,VWS V14.01,2017-02-23 19:11:00,
2017-02-23 14:16:00,65.5,49.4,29.73,SSW,211,1.0,6.0,56,0.00,,OVC070,0.00,VWS V14.01,2017-02-23 19:16:00,
2017-02-23 14:21:00,65.6,49.5,29.73,SSW,203,0.0,3.0,56,0.00,,OVC070,0.00,VWS V14.01,2017-02-23 19:21:00,
2017-02-23 14:26:00,65.8,50.2,29.73,SW,233,1.0,3.0,57,0.00,,OVC070,0.00,VWS V14.01,2017-02-23 19:26:00,
2017-02-23 14:31:00,65.6,50.4,29.72,SW,221,1.0,4.0,58,0.00,,OVC070,0.00,VWS V14.01,2017-02-23 19:31:00,
2017-02-23 14:36:00,65.5,50.3,29.72,SW,221,3.0,3.0,58,0.00,,OVC070,0.00,VWS V14.01,2017-02-23 19:36:00,
2017-02-23 14:41:00,65.0,50.3,29.72,SW,221,0.0,3.0,59,0.00,,OVC070,0.00,VWS V14.01,2017-02-23 19:41:00,
2017-02-23 14:46:00,64.5,50.3,29.73,SSW,207,0.0,3.0,60,0.00,,OVC070,0.00,VWS V14.01,2017-02-23 19:46:00,
2017-02-23 14:51:00,64.2,50.5,29.73,SW,229,2.0,4.0,61,0.00,,OVC070,0.00,VWS V14.01,2017-02-23 19:51:00,
2017-02-23 14:56:00,63.9,50.2,29.73,SW,218,0.0,0.0,61,0.00,,OVC070,0.00,VWS V14.01,2017-02-23 19:56:00,
2017-02-23 15:01:00,63.5,50.3,29.72,SSW,207,0.0,3.0,62,0.00,,OVC070,0.00,VWS V14.01,2017-02-23 20:01:00,
2017-02-23 15:06:00,63.4,50.6,29.72,WSW,243,1.0,2.0,63,0.00,,OVC070,0.00,VWS V14.01,2017-02-23 20:06:00,
2017-02-23 15:11:00,63.2,50.4,29.72,SSW,201,0.0,2.0,63,0.00,,OVC070,0.00,VWS V14.01,2017-02-23 20:11:00,
2017-02-23 15:16:00,62.9,50.1,29.72,SSW,195,2.0,2.0,63,0.00,,OVC070,0.00,VWS V14.01,2017-02-23 20:16:00,
2017-02-23 15:21:00,62.7,49.9,29.72,SSW,200,5.0,5.0,63,0.00,,OVC070,0.00,VWS V14.01,2017-02-23 20:21:00,
2017-02-23 15:26:00,62.6,50.3,29.72,SSW,205,0.0,2.0,64,0.00,,OVC070,0.00,VWS V14.01,2017-02-23 20:26:00,
2017-02-23 15:31:00,62.7,49.9,29.72,SSW,195,2.0,3.0,63,0.00,,OVC070,0.00,VWS V14.01,2017-02-23 20:31:00,
2017-02-23 15:36:00,62.7,50.4,29.72,SW,232,3.0,4.0,64,0.00,,OVC070,0.00,VWS V14.01,2017-02-23 20:36:00,
2017-02-23 15:41:00,62.7,49.9,29.72,SSW,208,0.0,3.0,63,0.00,,OVC070,0.00,VWS V14.01,2017-02-23 20:41:00,
2017-02-23 15:46:00,62.6,50.3,29.72,SSW,200,2.0,4.0,64,0.00,,OVC070,0.00,VWS V14.01,2017-02-23 20:46:00,
2017-02-23 15:51:00,62.3,50.0,29.72,SSW,201,1.0,2.0,64,0.00,,OVC070,0.00,VWS V14.01,2017-02-23 20:51:00,
2017-02-23 15:56:00,62.0,50.1,29.72,WSW,238,2.0,6.0,65,0.00,,OVC070,0.00,VWS V14.01,2017-02-23 20:56:00,
2017-02-23 16:01:00,61.8,49.9,29.72,SSW,207,0.0,2.0,65,0.00,,OVC070,0.00,VWS V14.01,2017-02-23 21:01:00,
2017-02-23 16:06:00,61.6,50.1,29.72,SSW,206,2.0,3.0,66,0.00,,OVC070,0.00,VWS V14.01,2017-02-23 21:06:00,
2017-02-23 16:11:00,61.5,50.0,29.72,SSW,198,0.0,4.0,66,0.00,,OVC070,0.00,VWS V14.01,2017-02-23 21:11:00,
2017-02-23 16:16:00,61.2,49.8,29.72,SSW,200,0.0,2.0,66,0.00,,OVC070,0.00,VWS V14.01,2017-02-23 21:16:00,
2017-02-23 16:21:00,60.9,49.9,29.72,SSW,192,2.0,4.0,67,0.00,,OVC070,0.00,VWS V14.01,2017-02-23 21:21:00,
2017-02-23 16:26:00,60.5,49.9,29.72,SE,124,0.0,4.0,68,0.00,,OVC070,0.00,VWS V14.01,2017-02-23 21:26:00,
2017-02-23 16:31:00,59.9,49.3,29.71,SSW,205,0.0,3.0,68,0.00,,OVC070,0.00,VWS V14.01,2017-02-23 21:31:00,
2017-02-23 16:36:00,59.5,49.7,29.71,SSW,192,0.0,3.0,70,0.00,,OVC070,0.00,VWS V14.01,2017-02-23 21:36:00,
2017-02-23 16:41:00,59.0,49.6,29.71,SSW,199,0.0,3.0,71,0.00,,OVC070,0.00,VWS V14.01,2017-02-23 21:41:00,
2017-02-23 16:46:00,58.6,49.6,29.72,SSW,207,0.0,0.0,72,0.00,,OVC070,0.00,VWS V14.01,2017-02-23 21:46:00,
2017-02-23 16:51:00,58.1,49.5,29.72,SW,215,0.0,0.0,73,0.00,,OVC070,0.00,VWS V14.01,2017-02-23 21:51:00,
2017-02-23 16:56:00,57.8,49.2,29.72,WSW,238,2.0,3.0,73,0.00,,OVC070,0.00,VWS V14.01,2017-02-23 21:56:00,
2017-02-23 17:01:00,57.5,49.7,29.74,SW,219,0.0,1.0,75,0.00,,OVC070,0.00,VWS V14.01,2017-02-23 22:01:00,
2017-02-23 17:06:00,57.0,49.2,29.74,WSW,246,5.0,7.0,75,0.00,,OVC070,0.00,VWS V14.01,2017-02-23 22:06:00,
2017-02-23 17:11:00,56.7,49.2,29.74,SSW,208,0.0,2.0,76,0.00,,OVC070,0.00,VWS V14.01,2017-02-23 22:11:00,
2017-02-23 17:16:00,56.3,49.2,29.74,SW,236,0.0,1.0,77,0.00,,OVC070,0.00,VWS V14.01,2017-02-23 22:16:00,
2017-02-23 17:21:00,56.0,48.9,29.74,SW,226,0.0,0.0,77,0.00,,OVC070,0.00,VWS V14.01,2017-02-23 22:21:00,
2017-02-23 17:26:00,55.6,48.9,29.74,SW,221,0.0,1.0,78,0.00,,OVC070,0.00,VWS V14.01,2017-02-23 22:26:00,
2017-02-23 17:31:00,55.3,48.9,29.75,WSW,247,0.0,1.0,79,0.00,,OVC070,0.00,VWS V14.01,2017-02-23 22:31:00,
2017-02-23 17:36:00,55.0,49.0,29.75,SW,221,1.0,2.0,80,0.00,,OVC070,0.00,VWS V14.01,2017-02-23 22:36:00,
2017-02-23 17:41:00,54.7,49.0,29.75,SSW,205,1.0,3.0,81,0.00,,OVC070,0.00,VWS V14.01,2017-02-23 22:41:00,
2017-02-23 17:46:00,54.2,48.5,29.75,SSW,210,0.0,1.0,81,0.00,,OVC070,0.00,VWS V14.01,2017-02-23 22:46:00,
2017-02-23 17:51:00,53.9,48.5,29.75,SSW,213,0.0,0.0,82,0.00,,OVC070,0.00,VWS V14.01,2017-02-23 22:51:00,
2017-02-23 17:56:00,53.6,48.6,29.75,SSW,209,0.0,1.0,83,0.00,,OVC070,0.00,VWS V14.01,2017-02-23 22:56:00,
2017-02-23 18:01:00,53.3,48.3,29.77,SSW,210,0.0,1.0,83,0.00,,OVC070,0.00,VWS V14.01,2017-02-23 23:01:00,
2017-02-23 18:06:00,52.9,48.2,29.77,South,186,0.0,2.0,84,0.00,,OVC070,0.00,VWS V14.01,2017-02-23 23:06:00,
2017-02-23 18:11:00,52.6,47.9,29.77,SSW,199,1.0,3.0,84,0.00,,OVC070,0.00,VWS V14.01,2017-02-23 23:11:00,
2017-02-23 18:16:00,52.3,47.9,29.78,SW,220,1.0,3.0,85,0.00,,OVC070,0.00,VWS V14.01,2017-02-23 23:16:00,
2017-02-23 18:21:00,52.0,48.0,29.78,SW,216,0.0,1.0,86,0.00,,OVC070,0.00,VWS V14.01,2017-02-23 23:21:00,
2017-02-23 18:26:00,51.9,47.8,29.78,SW,216,0.0,1.0,86,0.00,,OVC070,0.00,VWS V14.01,2017-02-23 23:26:00,
2017-02-23 18:31:00,51.6,47.9,29.79,SW,216,0.0,1.0,87,0.00,,OVC070,0.00,VWS V14.01,2017-02-23 23:31:00,
2017-02-23 18:36:00,51.3,47.6,29.79,SW,216,0.0,0.0,87,0.00,,OVC070,0.00,VWS V14.01,2017-02-23 23:36:00,
2017-02-23 18:41:00,51.1,47.7,29.79,SW,216,0.0,1.0,88,0.00,,OVC070,0.00,VWS V14.01,2017-02-23 23:41:00,
2017-02-23 18:46:00,51.0,47.6,29.80,SW,233,0.0,2.0,88,0.00,,OVC070,0.00,VWS V14.01,2017-02-23 23:46:00,
2017-02-23 18:51:00,50.7,47.3,29.80,SW,225,0.0,2.0,88,0.00,,OVC070,0.00,VWS V14.01,2017-02-23 23:51:00,
2017-02-23 18:56:00,50.4,47.3,29.80,SW,225,0.0,1.0,89,0.00,,OVC070,0.00,VWS V14.01,2017-02-23 23:56:00,
2017-02-23 19:01:00,50.1,47.0,29.80,SW,228,0.0,1.0,89,0.00,,OVC070,0.00,VWS V14.01,2017-02-24 00:01:00,
2017-02-23 19:06:00,49.9,47.1,29.80,SW,228,0.0,0.0,90,0.00,,OVC070,0.00,VWS V14.01,2017-02-24 00:06:00,
2017-02-23 19:11:00,49.8,47.0,29.80,SSW,212,1.0,2.0,90,0.00,,OVC070,0.00,VWS V14.01,2017-02-24 00:11:00,
2017-02-23 19:16:00,49.5,46.7,29.81,SSW,212,0.0,2.0,90,0.00,,OVC070,0.00,VWS V14.01,2017-02-24 00:16:00,
2017-02-23 19:21:00,49.4,46.6,29.81,SW,228,1.0,1.0,90,0.00,,OVC070,0.00,VWS V14.01,2017-02-24 00:21:00,
2017-02-23 19:26:00,49.2,46.7,29.81,SW,219,0.0,4.0,91,0.00,,OVC070,0.00,VWS V14.01,2017-02-24 00:26:00,
2017-02-23 19:31:00,48.9,46.4,29.82,SW,219,0.0,1.0,91,0.00,,OVC070,0.00,VWS V14.01,2017-02-24 00:31:00,
2017-02-23 19:36:00,48.8,46.3,29.82,SW,220,0.0,2.0,91,0.00,,OVC070,0.00,VWS V14.01,2017-02-24 00:36:00,
2017-02-23 19:41:00,48.6,46.4,29.82,SW,220,0.0,2.0,92,0.00,,OVC070,0.00,VWS V14.01,2017-02-24 00:41:00,
2017-02-23 19:46:00,48.5,46.3,29.83,SW,221,0.0,0.0,92,0.00,,OVC070,0.00,VWS V14.01,2017-02-24 00:46:00,
2017-02-23 19:51:00,48.3,46.1,29.83,SW,221,0.0,2.0,92,0.00,,OVC070,0.00,VWS V14.01,2017-02-24 00:51:00,